sensor_id;sensor_type;location;lat;lon;timestamp;P1;durP1;ratioP1;P2;durP2;ratioP2
39898;SDS011;25571;47.876;10.642;2023-07-29T09:30:15;3.55;;;1.27;;
39898;SDS011;25571;47.876;10.642;2023-07-29T09:32:41;2.65;;;0.82;;
39898;SDS011;25571;47.876;10.642;2023-07-29T09:35:11;3.28;;;1.00;;
39898;SDS011;25571;47.876;10.642;2023-07-29T09:37:38;5.93;;;1.02;;
39898;SDS011;25571;47.876;10.642;2023-07-29T09:40:04;2.65;;;1.00;;
39898;SDS011;25571;47.876;10.642;2023-07-29T09:42:31;2.75;;;0.88;;
39898;SDS011;25571;47.876;10.642;2023-07-29T09:44:57;3.13;;;0.90;;
39898;SDS011;25571;47.876;10.642;2023-07-29T09:47:24;2.95;;;0.90;;
39898;SDS011;25571;47.876;10.642;2023-07-29T09:49:51;6.38;;;1.48;;
39898;SDS011;25571;47.876;10.642;2023-07-29T09:52:17;4.78;;;1.50;;
39898;SDS011;25571;47.876;10.642;2023-07-29T09:54:44;2.33;;;0.80;;
39898;SDS011;25571;47.876;10.642;2023-07-29T09:57:11;7.10;;;1.17;;
39898;SDS011;25571;47.876;10.642;2023-07-29T09:59:41;2.75;;;0.80;;
39898;SDS011;25571;47.876;10.642;2023-07-29T10:02:08;9.65;;;1.50;;
39898;SDS011;25571;47.876;10.642;2023-07-29T10:04:40;4.72;;;1.10;;
39898;SDS011;25571;47.876;10.642;2023-07-29T10:07:06;6.63;;;1.25;;
39898;SDS011;25571;47.876;10.642;2023-07-29T10:09:33;1.67;;;0.65;;
39898;SDS011;25571;47.876;10.642;2023-07-29T10:11:59;1.88;;;0.88;;
39898;SDS011;25571;47.876;10.642;2023-07-29T10:14:26;2.20;;;0.90;;
39898;SDS011;25571;47.876;10.642;2023-07-29T10:19:20;1.73;;;1.05;;
39898;SDS011;25571;47.876;10.642;2023-07-29T10:21:47;4.82;;;1.75;;
39898;SDS011;25571;47.876;10.642;2023-07-29T10:24:15;3.50;;;1.23;;
39898;SDS011;25571;47.876;10.642;2023-07-29T10:26:47;3.75;;;1.23;;
39898;SDS011;25571;47.876;10.642;2023-07-29T10:29:14;2.75;;;1.00;;
39898;SDS011;25571;47.876;10.642;2023-07-29T10:31:45;3.08;;;1.10;;
39898;SDS011;25571;47.876;10.642;2023-07-29T10:34:12;2.30;;;0.85;;
39898;SDS011;25571;47.876;10.642;2023-07-29T10:36:38;2.45;;;1.10;;
39898;SDS011;25571;47.876;10.642;2023-07-29T10:39:06;1.70;;;0.80;;
39898;SDS011;25571;47.876;10.642;2023-07-29T10:50:00;6.07;;;1.60;;
39898;SDS011;25571;47.876;10.642;2023-07-29T10:55:01;17.05;;;4.40;;
39898;SDS011;25571;47.876;10.642;2023-07-29T10:57:38;18.38;;;4.60;;
39898;SDS011;25571;47.876;10.642;2023-07-29T11:00:06;14.35;;;4.78;;
39898;SDS011;25571;47.876;10.642;2023-07-29T11:02:36;159.38;;;22.17;;
39898;SDS011;25571;47.876;10.642;2023-07-29T11:05:06;114.95;;;17.67;;
39898;SDS011;25571;47.876;10.642;2023-07-29T11:07:43;78.13;;;15.50;;
39898;SDS011;25571;47.876;10.642;2023-07-29T11:10:13;61.20;;;11.38;;
39898;SDS011;25571;47.876;10.642;2023-07-29T11:12:44;67.65;;;11.30;;
39898;SDS011;25571;47.876;10.642;2023-07-29T11:20:21;32.38;;;7.95;;
39898;SDS011;25571;47.876;10.642;2023-07-29T11:22:49;34.67;;;7.55;;
39898;SDS011;25571;47.876;10.642;2023-07-29T11:25:16;37.42;;;7.18;;
39898;SDS011;25571;47.876;10.642;2023-07-29T11:27:42;37.80;;;8.18;;
39898;SDS011;25571;47.876;10.642;2023-07-29T11:30:09;32.15;;;7.95;;
39898;SDS011;25571;47.876;10.642;2023-07-29T11:32:37;45.13;;;8.70;;
39898;SDS011;25571;47.876;10.642;2023-07-29T11:35:04;33.65;;;8.77;;
39898;SDS011;25571;47.876;10.642;2023-07-29T11:37:32;33.58;;;8.57;;
39898;SDS011;25571;47.876;10.642;2023-07-29T11:39:58;39.63;;;8.90;;
39898;SDS011;25571;47.876;10.642;2023-07-29T11:42:24;30.52;;;7.55;;
39898;SDS011;25571;47.876;10.642;2023-07-29T11:44:51;25.85;;;7.60;;
39898;SDS011;25571;47.876;10.642;2023-07-29T11:47:17;35.50;;;8.63;;
39898;SDS011;25571;47.876;10.642;2023-07-29T11:49:42;91.88;;;17.08;;
39898;SDS011;25571;47.876;10.642;2023-07-29T11:52:08;87.50;;;15.85;;
39898;SDS011;25571;47.876;10.642;2023-07-29T11:54:36;104.28;;;19.15;;
39898;SDS011;25571;47.876;10.642;2023-07-29T11:57:11;83.60;;;14.40;;
39898;SDS011;25571;47.876;10.642;2023-07-29T11:59:38;57.45;;;12.93;;
39898;SDS011;25571;47.876;10.642;2023-07-29T12:02:05;47.63;;;10.20;;
39898;SDS011;25571;47.876;10.642;2023-07-29T12:04:43;56.88;;;10.68;;
39898;SDS011;25571;47.876;10.642;2023-07-29T12:07:11;42.47;;;11.35;;
39898;SDS011;25571;47.876;10.642;2023-07-29T12:09:38;49.38;;;9.25;;
39898;SDS011;25571;47.876;10.642;2023-07-29T12:12:05;40.40;;;11.25;;
39898;SDS011;25571;47.876;10.642;2023-07-29T12:14:31;44.65;;;10.15;;
39898;SDS011;25571;47.876;10.642;2023-07-29T12:16:59;42.95;;;9.68;;
39898;SDS011;25571;47.876;10.642;2023-07-29T12:19:32;44.88;;;9.32;;
39898;SDS011;25571;47.876;10.642;2023-07-29T12:22:02;38.65;;;9.18;;
39898;SDS011;25571;47.876;10.642;2023-07-29T12:24:29;36.40;;;9.40;;
39898;SDS011;25571;47.876;10.642;2023-07-29T12:26:56;33.08;;;9.45;;
39898;SDS011;25571;47.876;10.642;2023-07-29T12:29:21;32.53;;;9.63;;
39898;SDS011;25571;47.876;10.642;2023-07-29T12:31:48;30.60;;;8.55;;
39898;SDS011;25571;47.876;10.642;2023-07-29T12:34:20;32.85;;;8.23;;
39898;SDS011;25571;47.876;10.642;2023-07-29T12:36:49;39.58;;;9.35;;
39898;SDS011;25571;47.876;10.642;2023-07-29T12:39:17;27.88;;;8.35;;
39898;SDS011;25571;47.876;10.642;2023-07-29T12:41:46;28.88;;;9.35;;
39898;SDS011;25571;47.876;10.642;2023-07-29T12:44:13;27.40;;;9.82;;
39898;SDS011;25571;47.876;10.642;2023-07-29T12:46:39;32.00;;;8.13;;
39898;SDS011;25571;47.876;10.642;2023-07-29T12:49:04;30.45;;;7.72;;
39898;SDS011;25571;47.876;10.642;2023-07-29T12:51:30;30.90;;;8.02;;
39898;SDS011;25571;47.876;10.642;2023-07-29T12:53:56;24.38;;;6.95;;
39898;SDS011;25571;47.876;10.642;2023-07-29T12:56:22;25.75;;;7.25;;
39898;SDS011;25571;47.876;10.642;2023-07-29T12:58:48;21.08;;;7.25;;
39898;SDS011;25571;47.876;10.642;2023-07-29T13:01:14;24.63;;;7.30;;
39898;SDS011;25571;47.876;10.642;2023-07-29T13:03:43;22.35;;;6.60;;
39898;SDS011;25571;47.876;10.642;2023-07-29T13:06:08;21.77;;;6.90;;
39898;SDS011;25571;47.876;10.642;2023-07-29T13:08:34;19.65;;;6.15;;
39898;SDS011;25571;47.876;10.642;2023-07-29T13:11:00;22.27;;;6.40;;
39898;SDS011;25571;47.876;10.642;2023-07-29T13:13:25;16.92;;;6.18;;
39898;SDS011;25571;47.876;10.642;2023-07-29T13:15:51;20.80;;;6.75;;
39898;SDS011;25571;47.876;10.642;2023-07-29T13:18:17;14.82;;;5.60;;
39898;SDS011;25571;47.876;10.642;2023-07-29T13:20:43;17.90;;;5.78;;
39898;SDS011;25571;47.876;10.642;2023-07-29T13:23:09;15.73;;;5.50;;
39898;SDS011;25571;47.876;10.642;2023-07-29T13:25:34;18.38;;;6.35;;
39898;SDS011;25571;47.876;10.642;2023-07-29T13:28:00;15.15;;;5.85;;
39898;SDS011;25571;47.876;10.642;2023-07-29T13:30:25;16.60;;;6.00;;
39898;SDS011;25571;47.876;10.642;2023-07-29T13:32:51;14.63;;;4.90;;
39898;SDS011;25571;47.876;10.642;2023-07-29T13:35:16;16.92;;;5.60;;
39898;SDS011;25571;47.876;10.642;2023-07-29T13:37:42;12.80;;;4.38;;
39898;SDS011;25571;47.876;10.642;2023-07-29T13:40:08;21.65;;;4.90;;
39898;SDS011;25571;47.876;10.642;2023-07-29T13:42:33;138.23;;;23.15;;
39898;SDS011;25571;47.876;10.642;2023-07-29T13:44:59;60.10;;;10.98;;
39898;SDS011;25571;47.876;10.642;2023-07-29T13:47:24;36.50;;;8.27;;
39898;SDS011;25571;47.876;10.642;2023-07-29T13:49:50;31.02;;;6.65;;
39898;SDS011;25571;47.876;10.642;2023-07-29T13:52:15;29.92;;;7.13;;
39898;SDS011;25571;47.876;10.642;2023-07-29T13:54:41;29.55;;;6.13;;
39898;SDS011;25571;47.876;10.642;2023-07-29T13:57:06;25.58;;;5.57;;
39898;SDS011;25571;47.876;10.642;2023-07-29T13:59:32;29.65;;;7.00;;
39898;SDS011;25571;47.876;10.642;2023-07-29T14:01:58;21.98;;;5.35;;
39898;SDS011;25571;47.876;10.642;2023-07-29T14:04:23;20.48;;;5.13;;
39898;SDS011;25571;47.876;10.642;2023-07-29T14:06:49;20.80;;;5.22;;
39898;SDS011;25571;47.876;10.642;2023-07-29T14:09:14;18.30;;;5.65;;
39898;SDS011;25571;47.876;10.642;2023-07-29T14:11:40;19.38;;;5.72;;
39898;SDS011;25571;47.876;10.642;2023-07-29T14:14:06;18.92;;;5.97;;
39898;SDS011;25571;47.876;10.642;2023-07-29T14:16:32;16.83;;;5.38;;
39898;SDS011;25571;47.876;10.642;2023-07-29T14:18:58;12.15;;;5.15;;
39898;SDS011;25571;47.876;10.642;2023-07-29T14:21:23;16.48;;;4.88;;
39898;SDS011;25571;47.876;10.642;2023-07-29T14:23:49;17.95;;;5.32;;
39898;SDS011;25571;47.876;10.642;2023-07-29T14:26:15;17.88;;;4.90;;
39898;SDS011;25571;47.876;10.642;2023-07-29T14:28:40;19.45;;;5.90;;
39898;SDS011;25571;47.876;10.642;2023-07-29T14:31:06;15.85;;;5.10;;
39898;SDS011;25571;47.876;10.642;2023-07-29T14:33:32;22.85;;;4.80;;
39898;SDS011;25571;47.876;10.642;2023-07-29T14:35:57;16.23;;;4.57;;
39898;SDS011;25571;47.876;10.642;2023-07-29T14:38:23;18.33;;;4.88;;
39898;SDS011;25571;47.876;10.642;2023-07-29T14:40:48;14.77;;;5.40;;
39898;SDS011;25571;47.876;10.642;2023-07-29T14:43:16;14.70;;;5.30;;
39898;SDS011;25571;47.876;10.642;2023-07-29T14:45:42;15.18;;;4.68;;
39898;SDS011;25571;47.876;10.642;2023-07-29T14:48:07;14.35;;;4.80;;
39898;SDS011;25571;47.876;10.642;2023-07-29T14:50:33;16.48;;;4.05;;
39898;SDS011;25571;47.876;10.642;2023-07-29T14:52:58;15.88;;;4.55;;
39898;SDS011;25571;47.876;10.642;2023-07-29T14:55:24;20.38;;;4.60;;
39898;SDS011;25571;47.876;10.642;2023-07-29T14:57:49;16.30;;;4.95;;
39898;SDS011;25571;47.876;10.642;2023-07-29T15:00:16;12.77;;;4.82;;
39898;SDS011;25571;47.876;10.642;2023-07-29T15:02:42;13.05;;;4.60;;
39898;SDS011;25571;47.876;10.642;2023-07-29T15:05:08;15.07;;;5.10;;
39898;SDS011;25571;47.876;10.642;2023-07-29T15:07:33;15.02;;;4.07;;
39898;SDS011;25571;47.876;10.642;2023-07-29T15:09:59;12.93;;;3.78;;
39898;SDS011;25571;47.876;10.642;2023-07-29T15:12:24;12.32;;;4.10;;
39898;SDS011;25571;47.876;10.642;2023-07-29T15:14:53;13.73;;;4.55;;
39898;SDS011;25571;47.876;10.642;2023-07-29T15:17:19;20.33;;;4.68;;
39898;SDS011;25571;47.876;10.642;2023-07-29T15:19:44;17.17;;;5.00;;
39898;SDS011;25571;47.876;10.642;2023-07-29T15:22:16;14.43;;;4.43;;
39898;SDS011;25571;47.876;10.642;2023-07-29T15:24:42;13.52;;;4.82;;
39898;SDS011;25571;47.876;10.642;2023-07-29T15:27:11;22.77;;;5.57;;
39898;SDS011;25571;47.876;10.642;2023-07-29T15:29:37;14.70;;;4.32;;
39898;SDS011;25571;47.876;10.642;2023-07-29T15:32:03;13.48;;;5.18;;
39898;SDS011;25571;47.876;10.642;2023-07-29T15:34:29;15.10;;;5.20;;
39898;SDS011;25571;47.876;10.642;2023-07-29T15:36:56;16.90;;;4.95;;
39898;SDS011;25571;47.876;10.642;2023-07-29T15:39:22;14.43;;;4.28;;
39898;SDS011;25571;47.876;10.642;2023-07-29T15:41:54;13.38;;;4.28;;
39898;SDS011;25571;47.876;10.642;2023-07-29T15:44:20;10.55;;;4.63;;
39898;SDS011;25571;47.876;10.642;2023-07-29T15:46:46;17.10;;;5.13;;
39898;SDS011;25571;47.876;10.642;2023-07-29T15:49:12;14.73;;;5.40;;
39898;SDS011;25571;47.876;10.642;2023-07-29T15:51:37;13.52;;;5.45;;
39898;SDS011;25571;47.876;10.642;2023-07-29T15:54:03;13.75;;;4.80;;
39898;SDS011;25571;47.876;10.642;2023-07-29T15:56:31;13.90;;;4.63;;
39898;SDS011;25571;47.876;10.642;2023-07-29T15:59:01;15.55;;;5.22;;
39898;SDS011;25571;47.876;10.642;2023-07-29T16:01:27;15.45;;;5.38;;
39898;SDS011;25571;47.876;10.642;2023-07-29T16:03:54;16.13;;;4.57;;
39898;SDS011;25571;47.876;10.642;2023-07-29T16:06:19;13.45;;;5.55;;
39898;SDS011;25571;47.876;10.642;2023-07-29T16:08:45;13.38;;;5.03;;
39898;SDS011;25571;47.876;10.642;2023-07-29T16:11:11;15.27;;;5.38;;
39898;SDS011;25571;47.876;10.642;2023-07-29T16:13:36;12.00;;;3.95;;
39898;SDS011;25571;47.876;10.642;2023-07-29T16:16:02;12.63;;;4.72;;
39898;SDS011;25571;47.876;10.642;2023-07-29T16:18:30;13.32;;;4.60;;
39898;SDS011;25571;47.876;10.642;2023-07-29T16:20:55;11.68;;;4.78;;
39898;SDS011;25571;47.876;10.642;2023-07-29T16:23:27;9.15;;;4.05;;
39898;SDS011;25571;47.876;10.642;2023-07-29T16:25:53;8.80;;;3.58;;
39898;SDS011;25571;47.876;10.642;2023-07-29T16:28:18;12.68;;;4.38;;
39898;SDS011;25571;47.876;10.642;2023-07-29T16:30:44;11.15;;;3.45;;
39898;SDS011;25571;47.876;10.642;2023-07-29T16:33:09;15.02;;;3.78;;
39898;SDS011;25571;47.876;10.642;2023-07-29T16:35:35;12.35;;;4.00;;
39898;SDS011;25571;47.876;10.642;2023-07-29T16:38:00;11.77;;;4.30;;
39898;SDS011;25571;47.876;10.642;2023-07-29T16:40:26;18.92;;;5.38;;
39898;SDS011;25571;47.876;10.642;2023-07-29T16:42:52;8.88;;;3.97;;
39898;SDS011;25571;47.876;10.642;2023-07-29T16:45:17;9.75;;;4.03;;
39898;SDS011;25571;47.876;10.642;2023-07-29T16:47:43;11.93;;;4.18;;
39898;SDS011;25571;47.876;10.642;2023-07-29T16:50:09;9.55;;;3.60;;
39898;SDS011;25571;47.876;10.642;2023-07-29T16:52:34;9.07;;;4.25;;
39898;SDS011;25571;47.876;10.642;2023-07-29T16:55:00;9.65;;;3.80;;
39898;SDS011;25571;47.876;10.642;2023-07-29T16:57:26;8.73;;;4.05;;
39898;SDS011;25571;47.876;10.642;2023-07-29T16:59:51;9.05;;;3.33;;
39898;SDS011;25571;47.876;10.642;2023-07-29T17:02:17;8.57;;;3.85;;
39898;SDS011;25571;47.876;10.642;2023-07-29T17:04:43;9.35;;;3.30;;
39898;SDS011;25571;47.876;10.642;2023-07-29T17:07:08;7.65;;;3.90;;
39898;SDS011;25571;47.876;10.642;2023-07-29T17:09:34;8.23;;;3.83;;
39898;SDS011;25571;47.876;10.642;2023-07-29T17:12:00;8.35;;;3.97;;
39898;SDS011;25571;47.876;10.642;2023-07-29T17:14:25;254.90;;;34.28;;
39898;SDS011;25571;47.876;10.642;2023-07-29T17:16:57;122.05;;;18.33;;
39898;SDS011;25571;47.876;10.642;2023-07-29T17:19:22;58.22;;;11.73;;
39898;SDS011;25571;47.876;10.642;2023-07-29T17:21:48;58.88;;;11.82;;
39898;SDS011;25571;47.876;10.642;2023-07-29T17:24:14;42.22;;;8.40;;
39898;SDS011;25571;47.876;10.642;2023-07-29T17:26:39;39.58;;;8.05;;
39898;SDS011;25571;47.876;10.642;2023-07-29T17:29:05;40.13;;;7.30;;
39898;SDS011;25571;47.876;10.642;2023-07-29T17:31:31;29.42;;;7.53;;
39898;SDS011;25571;47.876;10.642;2023-07-29T17:33:56;36.35;;;8.15;;
39898;SDS011;25571;47.876;10.642;2023-07-29T17:36:22;20.55;;;6.82;;
39898;SDS011;25571;47.876;10.642;2023-07-29T17:38:48;23.70;;;7.03;;
39898;SDS011;25571;47.876;10.642;2023-07-29T17:41:20;61.25;;;21.33;;
39898;SDS011;25571;47.876;10.642;2023-07-29T17:46:13;128.57;;;52.75;;
39898;SDS011;25571;47.876;10.642;2023-07-29T17:51:08;85.88;;;37.60;;
39898;SDS011;25571;47.876;10.642;2023-07-29T17:53:33;73.28;;;31.02;;
39898;SDS011;25571;47.876;10.642;2023-07-29T17:55:59;89.05;;;38.72;;
39898;SDS011;25571;47.876;10.642;2023-07-29T17:58:25;111.05;;;49.97;;
39898;SDS011;25571;47.876;10.642;2023-07-29T18:00:50;99.13;;;44.33;;
39898;SDS011;25571;47.876;10.642;2023-07-29T18:03:17;88.60;;;37.72;;
39898;SDS011;25571;47.876;10.642;2023-07-29T18:05:43;72.28;;;33.70;;
39898;SDS011;25571;47.876;10.642;2023-07-29T18:08:09;75.60;;;31.52;;
39898;SDS011;25571;47.876;10.642;2023-07-29T18:10:41;60.03;;;27.77;;
39898;SDS011;25571;47.876;10.642;2023-07-29T18:13:07;60.33;;;27.25;;
39898;SDS011;25571;47.876;10.642;2023-07-29T18:15:33;54.40;;;24.85;;
39898;SDS011;25571;47.876;10.642;2023-07-29T18:17:59;51.03;;;22.48;;
39898;SDS011;25571;47.876;10.642;2023-07-29T18:20:25;55.30;;;22.85;;
39898;SDS011;25571;47.876;10.642;2023-07-29T18:22:51;49.05;;;21.88;;
39898;SDS011;25571;47.876;10.642;2023-07-29T18:25:19;45.42;;;20.02;;
39898;SDS011;25571;47.876;10.642;2023-07-29T18:27:45;44.08;;;19.08;;
39898;SDS011;25571;47.876;10.642;2023-07-29T18:30:11;45.42;;;18.52;;
39898;SDS011;25571;47.876;10.642;2023-07-29T18:37:34;33.65;;;13.75;;
39898;SDS011;25571;47.876;10.642;2023-07-29T18:40:01;33.25;;;14.70;;
39898;SDS011;25571;47.876;10.642;2023-07-29T18:42:27;29.75;;;13.20;;
39898;SDS011;25571;47.876;10.642;2023-07-29T18:44:53;29.55;;;13.13;;
39898;SDS011;25571;47.876;10.642;2023-07-29T18:47:19;27.00;;;12.25;;
39898;SDS011;25571;47.876;10.642;2023-07-29T18:49:44;27.40;;;11.98;;
39898;SDS011;25571;47.876;10.642;2023-07-29T18:52:10;26.20;;;11.55;;
39898;SDS011;25571;47.876;10.642;2023-07-29T18:54:36;29.15;;;12.00;;
39898;SDS011;25571;47.876;10.642;2023-07-29T18:57:04;28.77;;;11.38;;
39898;SDS011;25571;47.876;10.642;2023-07-29T18:59:29;29.35;;;11.20;;
39898;SDS011;25571;47.876;10.642;2023-07-29T19:01:55;23.10;;;10.32;;
39898;SDS011;25571;47.876;10.642;2023-07-29T19:04:21;22.88;;;9.55;;
39898;SDS011;25571;47.876;10.642;2023-07-29T19:06:46;20.05;;;8.95;;
39898;SDS011;25571;47.876;10.642;2023-07-29T19:09:13;19.58;;;8.65;;
39898;SDS011;25571;47.876;10.642;2023-07-29T19:11:40;20.73;;;9.10;;
39898;SDS011;25571;47.876;10.642;2023-07-29T19:14:07;20.92;;;8.48;;
39898;SDS011;25571;47.876;10.642;2023-07-29T19:16:33;19.73;;;8.50;;
39898;SDS011;25571;47.876;10.642;2023-07-29T19:18:58;17.77;;;7.28;;
39898;SDS011;25571;47.876;10.642;2023-07-29T19:21:24;19.35;;;7.55;;
39898;SDS011;25571;47.876;10.642;2023-07-29T19:23:49;15.30;;;7.20;;
39898;SDS011;25571;47.876;10.642;2023-07-29T19:26:15;13.80;;;6.70;;
39898;SDS011;25571;47.876;10.642;2023-07-29T19:28:45;13.15;;;6.63;;
39898;SDS011;25571;47.876;10.642;2023-07-29T19:31:11;12.15;;;6.30;;
39898;SDS011;25571;47.876;10.642;2023-07-29T19:33:37;13.55;;;6.32;;
39898;SDS011;25571;47.876;10.642;2023-07-29T19:36:05;13.23;;;6.27;;
39898;SDS011;25571;47.876;10.642;2023-07-29T19:38:31;13.15;;;6.18;;
39898;SDS011;25571;47.876;10.642;2023-07-29T19:41:00;18.60;;;6.57;;
39898;SDS011;25571;47.876;10.642;2023-07-29T19:43:26;10.40;;;5.95;;
39898;SDS011;25571;47.876;10.642;2023-07-29T19:45:51;13.65;;;6.25;;
39898;SDS011;25571;47.876;10.642;2023-07-29T19:48:17;11.05;;;5.45;;
39898;SDS011;25571;47.876;10.642;2023-07-29T19:50:44;15.85;;;6.30;;
39898;SDS011;25571;47.876;10.642;2023-07-29T19:53:10;11.20;;;5.88;;
39898;SDS011;25571;47.876;10.642;2023-07-29T19:55:36;9.45;;;4.65;;
39898;SDS011;25571;47.876;10.642;2023-07-29T19:58:01;12.55;;;6.05;;
39898;SDS011;25571;47.876;10.642;2023-07-29T20:00:27;11.45;;;6.20;;
39898;SDS011;25571;47.876;10.642;2023-07-29T20:02:53;13.23;;;5.20;;
39898;SDS011;25571;47.876;10.642;2023-07-29T20:05:18;11.98;;;5.40;;
39898;SDS011;25571;47.876;10.642;2023-07-29T20:07:45;12.68;;;5.90;;
39898;SDS011;25571;47.876;10.642;2023-07-29T20:10:12;9.82;;;4.70;;
39898;SDS011;25571;47.876;10.642;2023-07-29T20:12:37;9.38;;;4.63;;
39898;SDS011;25571;47.876;10.642;2023-07-29T20:15:03;10.48;;;4.22;;
39898;SDS011;25571;47.876;10.642;2023-07-29T20:17:30;7.75;;;3.90;;
39898;SDS011;25571;47.876;10.642;2023-07-29T20:19:55;8.43;;;4.10;;
39898;SDS011;25571;47.876;10.642;2023-07-29T20:22:21;8.50;;;4.72;;
39898;SDS011;25571;47.876;10.642;2023-07-29T20:24:46;8.43;;;5.15;;
39898;SDS011;25571;47.876;10.642;2023-07-29T20:27:12;8.00;;;4.07;;
39898;SDS011;25571;47.876;10.642;2023-07-29T20:29:38;8.25;;;4.47;;
39898;SDS011;25571;47.876;10.642;2023-07-29T20:32:03;9.35;;;4.50;;
39898;SDS011;25571;47.876;10.642;2023-07-29T20:34:29;7.63;;;4.30;;
39898;SDS011;25571;47.876;10.642;2023-07-29T20:36:55;7.05;;;3.63;;
39898;SDS011;25571;47.876;10.642;2023-07-29T20:39:20;8.32;;;4.22;;
39898;SDS011;25571;47.876;10.642;2023-07-29T20:41:46;8.60;;;3.90;;
39898;SDS011;25571;47.876;10.642;2023-07-29T20:44:12;8.18;;;3.95;;
39898;SDS011;25571;47.876;10.642;2023-07-29T20:46:37;8.05;;;4.38;;
39898;SDS011;25571;47.876;10.642;2023-07-29T20:49:03;6.85;;;3.78;;
39898;SDS011;25571;47.876;10.642;2023-07-29T20:51:29;7.80;;;3.63;;
39898;SDS011;25571;47.876;10.642;2023-07-29T20:53:54;9.93;;;3.60;;
39898;SDS011;25571;47.876;10.642;2023-07-29T20:56:20;8.93;;;3.75;;
39898;SDS011;25571;47.876;10.642;2023-07-29T20:58:45;6.85;;;3.28;;
39898;SDS011;25571;47.876;10.642;2023-07-29T21:01:11;8.63;;;3.65;;
39898;SDS011;25571;47.876;10.642;2023-07-29T21:03:37;5.40;;;3.63;;
39898;SDS011;25571;47.876;10.642;2023-07-29T21:06:03;7.45;;;3.45;;
39898;SDS011;25571;47.876;10.642;2023-07-29T21:08:29;7.20;;;3.88;;
39898;SDS011;25571;47.876;10.642;2023-07-29T21:10:55;9.45;;;4.10;;
39898;SDS011;25571;47.876;10.642;2023-07-29T21:13:20;5.28;;;3.22;;
39898;SDS011;25571;47.876;10.642;2023-07-29T21:15:51;7.60;;;3.53;;
39898;SDS011;25571;47.876;10.642;2023-07-29T21:18:20;6.20;;;3.20;;
39898;SDS011;25571;47.876;10.642;2023-07-29T21:20:47;5.88;;;3.08;;
39898;SDS011;25571;47.876;10.642;2023-07-29T21:23:13;6.20;;;3.28;;
39898;SDS011;25571;47.876;10.642;2023-07-29T21:25:38;6.78;;;3.28;;
39898;SDS011;25571;47.876;10.642;2023-07-29T21:28:04;5.38;;;2.92;;
39898;SDS011;25571;47.876;10.642;2023-07-29T21:30:30;6.90;;;3.20;;
39898;SDS011;25571;47.876;10.642;2023-07-29T21:32:56;5.38;;;3.00;;
39898;SDS011;25571;47.876;10.642;2023-07-29T21:35:22;6.05;;;3.42;;
39898;SDS011;25571;47.876;10.642;2023-07-29T21:37:47;6.13;;;3.20;;
39898;SDS011;25571;47.876;10.642;2023-07-29T21:40:14;4.65;;;2.63;;
39898;SDS011;25571;47.876;10.642;2023-07-29T21:42:40;7.05;;;2.95;;
39898;SDS011;25571;47.876;10.642;2023-07-29T21:45:09;6.65;;;3.22;;
39898;SDS011;25571;47.876;10.642;2023-07-29T21:47:35;5.65;;;2.95;;
39898;SDS011;25571;47.876;10.642;2023-07-29T21:50:01;5.05;;;2.53;;
39898;SDS011;25571;47.876;10.642;2023-07-29T21:52:29;5.05;;;2.50;;
39898;SDS011;25571;47.876;10.642;2023-07-29T21:54:55;5.53;;;2.85;;
39898;SDS011;25571;47.876;10.642;2023-07-29T21:57:21;4.95;;;2.65;;
39898;SDS011;25571;47.876;10.642;2023-07-29T21:59:46;5.93;;;2.78;;
39898;SDS011;25571;47.876;10.642;2023-07-29T22:02:12;4.78;;;2.63;;
39898;SDS011;25571;47.876;10.642;2023-07-29T22:04:38;5.50;;;2.50;;
39898;SDS011;25571;47.876;10.642;2023-07-29T22:07:04;4.15;;;2.50;;
39898;SDS011;25571;47.876;10.642;2023-07-29T22:09:29;3.63;;;2.53;;
39898;SDS011;25571;47.876;10.642;2023-07-29T22:11:55;4.50;;;2.10;;
39898;SDS011;25571;47.876;10.642;2023-07-29T22:14:21;3.75;;;2.40;;
39898;SDS011;25571;47.876;10.642;2023-07-29T22:16:47;4.38;;;2.53;;
39898;SDS011;25571;47.876;10.642;2023-07-29T22:19:13;4.38;;;2.22;;
39898;SDS011;25571;47.876;10.642;2023-07-29T22:21:38;4.53;;;2.85;;
39898;SDS011;25571;47.876;10.642;2023-07-29T22:24:04;5.40;;;2.30;;
39898;SDS011;25571;47.876;10.642;2023-07-29T22:26:30;6.15;;;2.70;;
39898;SDS011;25571;47.876;10.642;2023-07-29T22:28:56;5.15;;;2.55;;
39898;SDS011;25571;47.876;10.642;2023-07-29T22:31:22;5.07;;;2.65;;
39898;SDS011;25571;47.876;10.642;2023-07-29T22:33:48;2.40;;;1.83;;
39898;SDS011;25571;47.876;10.642;2023-07-29T22:36:14;3.35;;;2.08;;
39898;SDS011;25571;47.876;10.642;2023-07-29T22:38:40;3.78;;;2.22;;
39898;SDS011;25571;47.876;10.642;2023-07-29T22:41:06;3.50;;;2.22;;
39898;SDS011;25571;47.876;10.642;2023-07-29T22:43:31;3.45;;;2.10;;
39898;SDS011;25571;47.876;10.642;2023-07-29T22:45:58;4.20;;;2.72;;
39898;SDS011;25571;47.876;10.642;2023-07-29T22:48:24;3.28;;;2.35;;
39898;SDS011;25571;47.876;10.642;2023-07-29T22:50:52;3.20;;;2.10;;
39898;SDS011;25571;47.876;10.642;2023-07-29T22:53:18;3.70;;;1.88;;
39898;SDS011;25571;47.876;10.642;2023-07-29T22:55:44;2.78;;;2.10;;
39898;SDS011;25571;47.876;10.642;2023-07-29T22:58:11;4.10;;;2.20;;
39898;SDS011;25571;47.876;10.642;2023-07-29T23:00:37;3.75;;;2.30;;
39898;SDS011;25571;47.876;10.642;2023-07-29T23:03:03;2.35;;;1.50;;
39898;SDS011;25571;47.876;10.642;2023-07-29T23:05:29;2.90;;;1.75;;
39898;SDS011;25571;47.876;10.642;2023-07-29T23:07:54;3.20;;;1.70;;
39898;SDS011;25571;47.876;10.642;2023-07-29T23:10:20;4.00;;;2.03;;
39898;SDS011;25571;47.876;10.642;2023-07-29T23:12:45;2.83;;;1.70;;
39898;SDS011;25571;47.876;10.642;2023-07-29T23:15:11;2.90;;;1.80;;
39898;SDS011;25571;47.876;10.642;2023-07-29T23:17:37;2.65;;;1.75;;
39898;SDS011;25571;47.876;10.642;2023-07-29T23:20:02;2.78;;;1.95;;
39898;SDS011;25571;47.876;10.642;2023-07-29T23:22:28;2.97;;;1.92;;
39898;SDS011;25571;47.876;10.642;2023-07-29T23:24:54;3.28;;;1.77;;
39898;SDS011;25571;47.876;10.642;2023-07-29T23:27:20;2.33;;;1.67;;
39898;SDS011;25571;47.876;10.642;2023-07-29T23:29:45;2.03;;;1.65;;
39898;SDS011;25571;47.876;10.642;2023-07-29T23:32:11;2.92;;;1.70;;
39898;SDS011;25571;47.876;10.642;2023-07-29T23:34:37;2.25;;;1.42;;
39898;SDS011;25571;47.876;10.642;2023-07-29T23:37:03;3.22;;;2.13;;
39898;SDS011;25571;47.876;10.642;2023-07-29T23:39:29;3.85;;;2.08;;
39898;SDS011;25571;47.876;10.642;2023-07-29T23:41:54;2.20;;;1.50;;
39898;SDS011;25571;47.876;10.642;2023-07-29T23:44:20;2.90;;;1.92;;
39898;SDS011;25571;47.876;10.642;2023-07-29T23:46:45;2.65;;;1.58;;
39898;SDS011;25571;47.876;10.642;2023-07-29T23:49:11;2.97;;;1.67;;
39898;SDS011;25571;47.876;10.642;2023-07-29T23:51:36;2.75;;;1.50;;
39898;SDS011;25571;47.876;10.642;2023-07-29T23:54:02;2.80;;;1.40;;
39898;SDS011;25571;47.876;10.642;2023-07-29T23:56:28;2.75;;;1.73;;
39898;SDS011;25571;47.876;10.642;2023-07-29T23:58:53;2.20;;;1.40;;
